Time;durP1;ratioP1;P1;durP2;ratioP2;P2;SDS_P1;SDS_P2;PMS_P1;PMS_P2;Temp;Humidity;BMP_temperature;BMP_pressure;BME280_temperature;BME280_humidity;BME280_pressure;Samples;Min_cycle;Max_cycle;Signal;HPM_P1;HPM_P2
2023/01/12 00:02:15;;;;;;;23.80;9.90;;;;;;;3.64;91.17;98624.09;105218;1256;97979;-65
2023/01/12 00:04:42;;;;;;;20.50;8.00;;;;;;;3.66;91.22;98629.08;105057;1260;98514;-65
2023/01/12 00:07:12;;;;;;;30.40;10.90;;;;;;;3.67;90.88;98623.23;105251;1256;108033;-64
2023/01/12 00:09:39;;;;;;;23.50;7.40;;;;;;;3.69;91.08;98624.75;105137;1260;97906;-65
2023/01/12 00:12:10;;;;;;;22.30;8.10;;;;;;;3.68;91.23;98620.35;105341;1254;98353;-65
2023/01/12 00:14:38;;;;;;;22.00;7.20;;;;;;;3.69;91.52;98618.78;105113;1260;111429;-65
2023/01/12 00:17:06;;;;;;;17.80;7.40;;;;;;;3.68;91.44;98622.52;105145;1259;98079;-65
2023/01/12 00:19:35;;;;;;;18.00;7.70;;;;;;;3.67;91.90;98621.11;105159;1257;108358;-64
2023/01/12 00:22:11;;;;;;;8.60;4.10;;;;;;;3.69;91.58;98622.30;105305;1257;98007;-64
2023/01/12 00:24:40;;;;;;;4.20;2.30;;;;;;;3.68;91.92;98620.19;105273;1257;98329;-65
2023/01/12 00:27:13;;;;;;;12.00;5.00;;;;;;;3.67;92.30;98615.58;105128;1251;111071;-65
2023/01/12 00:29:41;;;;;;;10.90;4.80;;;;;;;3.64;92.60;98617.14;105199;1257;99129;-65
2023/01/12 00:32:16;;;;;;;10.20;3.80;;;;;;;3.61;93.06;98617.79;105032;1273;107580;-67
2023/01/12 00:34:44;;;;;;;10.70;4.50;;;;;;;3.58;93.22;98620.81;104954;1258;98088;-66
2023/01/12 00:37:13;;;;;;;9.20;4.20;;;;;;;3.57;93.06;98616.96;105192;1258;98141;-66
2023/01/12 00:39:40;;;;;;;17.60;6.80;;;;;;;3.59;93.28;98623.84;105334;1254;112282;-67
2023/01/12 00:45:21;;;;;;;9.50;4.30;;;;;;;3.60;93.96;98632.41;105236;1257;108108;-67
2023/01/12 00:47:49;;;;;;;6.60;3.50;;;;;;;3.60;94.36;98631.60;105305;1257;97902;-67
2023/01/12 00:50:16;;;;;;;5.60;2.90;;;;;;;3.59;94.25;98635.61;105274;1257;98526;-68
2023/01/12 00:52:45;;;;;;;10.60;4.40;;;;;;;3.60;94.24;98630.36;105365;1257;112089;-66
2023/01/12 00:55:12;;;;;;;10.60;4.40;;;;;;;3.60;94.36;98630.26;105320;1251;98006;-67
2023/01/12 00:57:39;;;;;;;7.60;3.90;;;;;;;3.60;94.59;98629.00;105267;1251;98000;-67
2023/01/12 01:00:07;;;;;;;12.00;6.00;;;;;;;3.59;94.75;98627.71;105256;1264;98008;-67
2023/01/12 01:02:34;;;;;;;14.70;6.60;;;;;;;3.60;94.76;98631.89;105344;1254;99126;-67
2023/01/12 01:05:01;;;;;;;5.70;3.30;;;;;;;3.62;94.55;98636.27;105285;1255;98010;-67
2023/01/12 01:07:28;;;;;;;13.70;5.60;;;;;;;3.64;94.38;98639.09;105265;1251;97911;-67
2023/01/12 01:09:54;;;;;;;8.50;4.20;;;;;;;3.65;94.83;98638.98;105254;1254;98012;-67
2023/01/12 01:12:21;;;;;;;18.80;7.20;;;;;;;3.65;95.13;98633.73;105343;1267;98001;-66
2023/01/12 01:14:49;;;;;;;19.70;8.30;;;;;;;3.67;95.16;98641.38;105312;1274;112256;-67
2023/01/12 01:17:16;;;;;;;25.10;11.00;;;;;;;3.69;94.68;98639.49;105310;1257;99272;-67
2023/01/12 01:19:43;;;;;;;17.20;8.50;;;;;;;3.73;94.48;98637.27;105291;1273;98722;-67
2023/01/12 01:22:11;;;;;;;21.80;9.80;;;;;;;3.75;94.23;98641.45;105250;1264;97975;-66
2023/01/12 01:24:40;;;;;;;24.20;10.40;;;;;;;3.77;94.38;98636.72;105362;1254;98321;-66
2023/01/12 01:27:07;;;;;;;19.40;8.10;;;;;;;3.79;94.32;98639.98;105288;1255;112280;-67
2023/01/12 01:29:33;;;;;;;28.10;12.20;;;;;;;3.81;94.50;98640.26;105205;1254;97930;-67
2023/01/12 01:32:01;;;;;;;20.60;9.10;;;;;;;3.83;94.29;98641.45;105251;1257;99513;-67
2023/01/12 01:34:28;;;;;;;33.80;12.30;;;;;;;3.85;94.33;98643.63;105301;1257;99085;-68
2023/01/12 01:36:55;;;;;;;23.20;10.20;;;;;;;3.88;94.03;98638.41;105302;1264;98791;-67
2023/01/12 01:39:21;;;;;;;26.90;11.90;;;;;;;3.92;93.91;98642.17;105279;1257;97909;-68
2023/01/12 01:41:49;;;;;;;26.30;11.60;;;;;;;3.93;93.89;98641.84;105328;1257;97998;-68
2023/01/12 01:44:28;;;;;;;21.20;10.50;;;;;;;3.96;94.07;98647.42;105293;1251;98832;-68
2023/01/12 01:47:05;;;;;;;19.10;8.60;;;;;;;3.99;93.99;98646.73;105342;1261;98393;-68
2023/01/12 01:49:52;;;;;;;19.10;9.20;;;;;;;3.99;94.30;98641.74;105303;1264;112129;-68
2023/01/12 01:52:27;;;;;;;16.60;8.80;;;;;;;4.00;94.24;98645.86;105215;1256;98860;-72
2023/01/12 01:54:59;;;;;;;19.40;9.70;;;;;;;4.01;94.46;98643.58;105304;1273;108241;-70
2023/01/12 01:57:32;;;;;;;22.30;10.30;;;;;;;4.02;94.16;98644.83;105341;1257;98752;-70
2023/01/12 02:00:00;;;;;;;23.70;10.70;;;;;;;4.04;94.18;98647.10;105418;1261;98411;-69
2023/01/12 02:02:28;;;;;;;15.50;8.30;;;;;;;4.05;94.33;98644.71;105439;1273;112214;-70
2023/01/12 02:04:56;;;;;;;17.40;8.50;;;;;;;4.06;94.58;98646.95;105421;1257;97982;-70
2023/01/12 02:07:24;;;;;;;27.10;11.50;;;;;;;4.07;94.41;98648.84;105415;1257;108418;-70
2023/01/12 02:09:50;;;;;;;21.70;10.70;;;;;;;4.08;94.37;98648.63;105230;1266;98719;-71
2023/01/12 02:18:09;;;;;;;23.00;10.60;;;;;;;4.12;94.25;98661.00;105228;1268;98381;-71
2023/01/12 02:20:58;;;;;;;23.90;10.80;;;;;;;4.14;94.18;98664.73;105395;1257;108582;-71
2023/01/12 02:24:03;;;;;;;26.00;12.10;;;;;;;4.16;94.26;98665.98;105138;1268;97900;-71
2023/01/12 02:26:48;;;;;;;19.90;9.10;;;;;;;4.17;94.20;98662.90;105380;1251;98430;-71
2023/01/12 02:29:50;;;;;;;20.00;9.50;;;;;;;4.18;94.54;98664.30;105379;1251;112183;-71
2023/01/12 02:32:45;;;;;;;18.60;10.00;;;;;;;4.16;94.79;98659.46;104948;1263;98382;-72
2023/01/12 02:35:23;;;;;;;21.90;9.20;;;;;;;4.17;94.56;98656.88;104936;1262;108110;-72
2023/01/12 02:38:02;;;;;;;19.50;9.60;;;;;;;4.17;94.63;98663.34;104945;1281;98012;-72
2023/01/12 02:40:39;;;;;;;19.80;9.70;;;;;;;4.18;94.58;98670.98;104881;1276;98537;-72
2023/01/12 02:43:24;;;;;;;21.20;10.80;;;;;;;4.17;94.71;98672.34;104652;1273;111916;-72
2023/01/12 02:46:10;;;;;;;23.00;10.30;;;;;;;4.16;94.81;98675.92;104615;1262;99489;-72
2023/01/12 02:48:41;;;;;;;16.10;7.90;;;;;;;4.17;94.92;98674.73;104856;1262;107433;-72
2023/01/12 02:51:20;;;;;;;15.70;7.80;;;;;;;4.18;94.84;98671.04;104907;1262;98692;-70
2023/01/12 02:54:00;;;;;;;22.60;9.70;;;;;;;4.18;94.98;98672.99;104701;1260;98406;-69
2023/01/12 02:57:00;;;;;;;17.50;9.60;;;;;;;4.20;94.88;98673.76;104861;1263;111693;-69
2023/01/12 02:59:35;;;;;;;16.20;8.10;;;;;;;4.20;94.98;98673.16;104216;1269;98947;-70
2023/01/12 03:02:07;;;;;;;21.30;9.30;;;;;;;4.20;94.94;98670.39;104239;1276;108601;-70
2023/01/12 03:04:35;;;;;;;11.00;5.80;;;;;;;4.21;95.05;98664.64;104199;1271;98095;-71
2023/01/12 03:07:02;;;;;;;14.50;6.20;;;;;;;4.19;95.35;98661.21;104186;1271;99605;-71
2023/01/12 03:09:44;;;;;;;9.00;4.20;;;;;;;4.17;95.38;98661.55;104306;1271;99225;-71
2023/01/12 03:12:16;;;;;;;10.70;4.80;;;;;;;4.12;96.13;98664.79;104616;1266;99365;-71
2023/01/12 03:14:48;;;;;;;15.80;8.30;;;;;;;4.10;96.11;98668.15;104569;1266;108592;-72
2023/01/12 03:17:31;;;;;;;15.60;7.70;;;;;;;4.10;96.09;98671.64;104611;1260;99181;-71
2023/01/12 03:20:06;;;;;;;14.20;8.10;;;;;;;4.12;96.20;98673.75;104637;1263;99004;-72
2023/01/12 03:22:36;;;;;;;16.30;8.40;;;;;;;4.13;96.05;98679.11;104613;1268;110411;-70
2023/01/12 03:25:09;;;;;;;20.60;10.80;;;;;;;4.15;95.98;98680.96;104710;1275;98815;-70
2023/01/12 03:27:45;;;;;;;19.90;9.00;;;;;;;4.17;96.09;98679.99;104710;1259;108271;-70
2023/01/12 03:30:17;;;;;;;10.40;5.60;;;;;;;4.18;96.17;98675.60;104633;1278;98071;-70
2023/01/12 03:32:44;;;;;;;16.80;8.00;;;;;;;4.18;96.17;98682.04;104759;1265;98923;-70
2023/01/12 03:35:12;;;;;;;13.60;6.60;;;;;;;4.20;96.36;98680.92;104680;1265;97970;-70
2023/01/12 03:37:42;;;;;;;21.80;9.40;;;;;;;4.20;96.16;98677.88;105336;1257;97904;-70
2023/01/12 03:40:16;;;;;;;21.70;10.10;;;;;;;4.22;96.21;98678.36;105367;1255;108541;-70
2023/01/12 03:42:45;;;;;;;12.20;6.50;;;;;;;4.24;95.86;98675.48;105275;1266;98074;-70
2023/01/12 03:45:48;;;;;;;10.10;4.40;;;;;;;4.25;96.24;98676.04;105158;1259;99086;-69
2023/01/12 03:48:38;;;;;;;12.70;6.60;;;;;;;4.24;96.32;98677.88;104840;1260;112304;-70
2023/01/12 03:51:31;;;;;;;10.40;5.80;;;;;;;4.23;96.59;98669.80;104864;1260;98056;-70
2023/01/12 03:54:07;;;;;;;7.50;4.80;;;;;;;4.23;96.43;98667.25;104820;1282;108635;-69
2023/01/12 03:56:37;;;;;;;9.50;5.40;;;;;;;4.23;96.51;98666.04;104813;1262;98903;-69
2023/01/12 03:59:04;;;;;;;10.90;5.70;;;;;;;4.25;96.38;98673.80;105090;1274;97968;-70
2023/01/12 04:01:31;;;;;;;12.00;6.30;;;;;;;4.26;96.10;98669.84;105281;1262;112117;-69
2023/01/12 04:03:58;;;;;;;9.20;5.00;;;;;;;4.27;96.31;98660.14;104791;1262;97922;-69
2023/01/12 04:06:25;;;;;;;12.50;6.70;;;;;;;4.28;95.99;98663.60;104705;1262;97928;-69
2023/01/12 04:08:52;;;;;;;9.60;5.90;;;;;;;4.27;95.82;98668.15;104822;1263;99265;-69
2023/01/12 04:14:05;;;;;;;11.30;6.70;;;;;;;4.29;95.69;98672.06;104847;1260;112050;-69
2023/01/12 04:16:31;;;;;;;14.80;7.90;;;;;;;4.29;95.70;98665.44;104711;1262;98168;-69
2023/01/12 04:18:58;;;;;;;18.00;8.50;;;;;;;4.29;95.65;98672.39;104739;1273;99711;-69
2023/01/12 04:24:11;;;;;;;359.50;97.00;;;;;;;4.27;95.92;98679.16;104812;1272;99670;-70
2023/01/12 04:26:37;;;;;;;145.10;33.80;;;;;;;4.26;95.76;98680.64;105367;1257;97898;-70
2023/01/12 04:29:04;;;;;;;296.40;60.30;;;;;;;4.25;95.91;98689.27;105362;1257;99217;-70
2023/01/12 04:31:32;;;;;;;101.80;23.50;;;;;;;4.25;95.95;98692.41;105350;1265;97905;-70
2023/01/12 04:33:58;;;;;;;100.80;23.90;;;;;;;4.26;95.83;98698.42;105362;1254;99219;-69
2023/01/12 04:36:25;;;;;;;99.00;24.00;;;;;;;4.26;95.95;98696.43;105162;1257;97873;-69
2023/01/12 04:38:52;;;;;;;34.50;11.00;;;;;;;4.25;95.74;98691.60;105349;1251;98029;-71
2023/01/12 04:41:19;;;;;;;89.40;20.30;;;;;;;4.25;95.94;98690.94;105004;1256;275088;-70
2023/01/12 04:43:46;;;;;;;151.10;32.10;;;;;;;4.26;95.72;98695.89;105395;1264;97908;-69
2023/01/12 04:46:12;;;;;;;36.20;10.80;;;;;;;4.26;95.47;98696.97;105365;1256;99102;-69
2023/01/12 04:48:42;;;;;;;97.50;21.90;;;;;;;4.25;95.46;98694.59;105384;1274;97886;-69
2023/01/12 04:51:10;;;;;;;58.00;15.50;;;;;;;4.24;95.55;98696.27;105279;1260;99400;-69
2023/01/12 04:53:36;;;;;;;25.00;8.90;;;;;;;4.21;95.65;98693.61;105374;1257;97930;-69
2023/01/12 04:56:05;;;;;;;73.80;18.10;;;;;;;4.20;95.61;98691.98;105310;1257;99196;-69
2023/01/12 04:58:32;;;;;;;19.70;8.60;;;;;;;4.20;95.50;98693.98;106482;1255;97983;-69
2023/01/12 05:01:10;;;;;;;35.60;11.90;;;;;;;4.20;95.83;98697.73;105327;1266;97962;-69
2023/01/12 05:03:38;;;;;;;28.60;10.00;;;;;;;4.19;95.86;98705.48;105408;1260;99260;-70
2023/01/12 05:06:05;;;;;;;69.90;18.80;;;;;;;4.18;96.09;98704.40;105422;1268;98045;-69
2023/01/12 05:11:20;;;;;;;41.00;12.40;;;;;;;4.17;96.09;98710.68;105109;1260;98299;-68
2023/01/12 05:13:46;;;;;;;49.10;13.80;;;;;;;4.17;95.70;98708.31;105092;1261;111234;-68
2023/01/12 05:16:16;;;;;;;45.40;13.60;;;;;;;4.17;95.85;98701.36;105252;1257;97984;-68
2023/01/12 05:18:44;;;;;;;38.60;12.50;;;;;;;4.16;95.77;98700.60;105218;1257;108681;-68
2023/01/12 05:21:12;;;;;;;16.90;6.50;;;;;;;4.16;96.02;98700.92;105217;1254;99083;-68
2023/01/12 05:23:40;;;;;;;45.80;14.60;;;;;;;4.17;96.13;98701.20;105175;1251;98319;-67
2023/01/12 05:26:08;;;;;;;36.90;12.80;;;;;;;4.18;95.77;98700.05;105173;1256;111223;-67
2023/01/12 05:28:35;;;;;;;27.90;10.30;;;;;;;4.17;95.94;98703.91;105002;1257;98963;-68
2023/01/12 05:31:06;;;;;;;66.80;18.20;;;;;;;4.17;96.12;98709.94;105105;1257;97899;-67
2023/01/12 05:33:33;;;;;;;31.60;11.70;;;;;;;4.16;95.74;98704.66;105077;1257;97966;-67
2023/01/12 05:36:04;;;;;;;32.30;10.20;;;;;;;4.12;96.14;98702.01;105083;1257;99005;-67
2023/01/12 05:38:31;;;;;;;53.40;16.20;;;;;;;4.09;95.92;98706.51;105055;1255;111935;-67
2023/01/12 05:41:01;;;;;;;57.80;17.00;;;;;;;4.07;96.08;98709.64;105174;1273;99433;-67
2023/01/12 05:46:15;;;;;;;28.30;11.90;;;;;;;4.06;96.03;98713.01;105297;1257;97928;-67
2023/01/12 05:48:43;;;;;;;18.80;8.80;;;;;;;4.05;96.60;98712.63;105336;1264;99096;-66
2023/01/12 05:51:11;;;;;;;13.40;6.60;;;;;;;4.04;96.58;98710.89;105240;1257;98039;-66
2023/01/12 05:53:38;;;;;;;17.60;8.20;;;;;;;4.04;96.73;98710.94;105153;1257;99627;-67
2023/01/12 05:56:14;;;;;;;35.10;12.40;;;;;;;4.05;96.49;98716.74;105086;1274;97957;-67
2023/01/12 05:58:41;;;;;;;34.90;12.80;;;;;;;4.06;96.20;98720.77;106205;1260;97869;-68
2023/01/12 06:01:09;;;;;;;21.10;10.40;;;;;;;4.06;96.36;98725.04;105014;1268;98588;-67
2023/01/12 06:03:37;;;;;;;20.80;8.50;;;;;;;4.06;96.47;98726.02;105037;1260;111258;-65
2023/01/12 06:06:04;;;;;;;18.50;9.40;;;;;;;4.05;96.57;98719.61;105159;1273;99083;-65
2023/01/12 06:08:31;;;;;;;14.60;8.10;;;;;;;4.04;96.73;98718.39;105055;1264;98032;-65
2023/01/12 06:11:02;;;;;;;20.00;11.10;;;;;;;4.05;96.56;98729.44;105009;1265;97994;-66
2023/01/12 06:16:15;;;;;;;24.00;10.80;;;;;;;4.07;96.21;98741.97;104998;1267;112021;-67
2023/01/12 06:18:43;;;;;;;32.00;14.00;;;;;;;4.08;96.24;98736.71;105326;1260;99228;-68
2023/01/12 06:21:10;;;;;;;31.60;14.30;;;;;;;4.08;96.13;98737.74;105330;1266;99265;-67
2023/01/12 06:23:37;;;;;;;52.40;18.00;;;;;;;4.07;95.98;98745.23;105272;1257;98059;-67
2023/01/12 06:26:06;;;;;;;50.50;16.90;;;;;;;4.06;95.84;98741.05;105210;1256;99220;-68
2023/01/12 06:28:38;;;;;;;20.30;9.10;;;;;;;4.05;95.77;98736.92;105114;1267;113099;-68
2023/01/12 06:31:07;;;;;;;26.50;11.60;;;;;;;4.02;96.29;98732.95;105195;1251;98136;-67
2023/01/12 06:33:35;;;;;;;22.80;10.00;;;;;;;4.01;96.25;98727.54;104976;1260;107577;-68
2023/01/12 06:36:04;;;;;;;21.20;10.00;;;;;;;3.99;96.49;98728.52;105130;1257;99226;-68
2023/01/12 06:38:32;;;;;;;27.00;11.20;;;;;;;3.98;96.35;98736.16;105108;1257;98366;-67
2023/01/12 06:41:05;;;;;;;46.20;19.60;;;;;;;3.97;96.21;98739.46;105125;1257;111530;-67
2023/01/12 06:43:33;;;;;;;25.30;11.30;;;;;;;3.95;96.25;98740.05;105012;1257;99171;-66
2023/01/12 06:46:00;;;;;;;38.60;15.00;;;;;;;3.94;96.22;98741.09;104999;1273;108125;-67
2023/01/12 06:48:27;;;;;;;49.10;17.80;;;;;;;3.92;95.86;98744.02;105232;1257;97902;-69
2023/01/12 06:51:05;;;;;;;51.90;18.60;;;;;;;3.91;95.88;98742.77;105126;1256;98714;-67
2023/01/12 06:53:32;;;;;;;44.40;17.90;;;;;;;3.89;95.75;98742.86;105170;1266;111851;-67
2023/01/12 06:55:59;;;;;;;51.90;21.50;;;;;;;3.89;95.84;98741.83;105189;1257;99213;-67
2023/01/12 06:58:26;;;;;;;29.70;13.10;;;;;;;3.87;95.72;98743.51;105152;1264;98003;-68
2023/01/12 07:01:00;;;;;;;29.60;11.90;;;;;;;3.86;95.82;98747.62;105218;1273;98014;-67
2023/01/12 07:03:27;;;;;;;22.20;10.80;;;;;;;3.83;96.17;98747.23;104973;1257;98405;-67
2023/01/12 07:05:58;;;;;;;21.30;9.90;;;;;;;3.82;95.88;98748.04;105122;1257;97986;-67
2023/01/12 07:08:25;;;;;;;20.80;10.90;;;;;;;3.82;96.07;98744.41;105162;1260;99138;-67
2023/01/12 07:10:52;;;;;;;20.70;11.80;;;;;;;3.80;96.26;98740.45;104959;1274;107793;-67
2023/01/12 07:13:27;;;;;;;29.60;16.50;;;;;;;3.80;96.69;98734.11;105182;1264;97921;-67
2023/01/12 07:15:58;;;;;;;;;;;;;;;3.80;97.07;98733.39;105262;1266;97897;-67
2023/01/12 07:18:41;;;;;;;325.60;243.30;;;;;;;3.79;96.90;98737.58;105288;1265;111271;-67
2023/01/12 07:21:15;;;;;;;94.80;64.60;;;;;;;3.81;97.13;98736.21;104878;1260;98766;-67
2023/01/12 07:23:42;;;;;;;29.80;17.90;;;;;;;3.82;97.04;98739.98;105344;1266;107602;-68
2023/01/12 07:26:10;;;;;;;37.60;24.50;;;;;;;3.83;96.80;98747.94;105536;1257;97992;-67
2023/01/12 07:28:38;;;;;;;24.70;13.00;;;;;;;3.83;96.69;98750.96;105362;1256;98187;-67
2023/01/12 07:31:06;;;;;;;17.40;9.40;;;;;;;3.83;96.56;98749.41;105335;1257;97905;-67
2023/01/12 07:33:36;;;;;;;19.00;10.80;;;;;;;3.83;96.81;98745.88;105367;1265;99754;-67
2023/01/12 07:36:04;;;;;;;20.60;12.50;;;;;;;3.82;96.57;98742.50;105164;1267;108053;-67
2023/01/12 07:38:32;;;;;;;30.80;18.50;;;;;;;3.83;96.89;98745.02;105312;1264;98002;-68
2023/01/12 07:41:03;;;;;;;25.00;14.60;;;;;;;3.84;96.60;98741.92;105373;1256;99377;-66
2023/01/12 07:43:32;;;;;;;;;;;;;;;3.84;96.84;98743.92;105374;1265;111880;-67
2023/01/12 07:45:59;;;;;;;19.30;9.30;;;;;;;3.84;96.92;98739.43;105151;1268;99013;-67
2023/01/12 07:48:26;;;;;;;19.90;11.60;;;;;;;3.87;96.93;98744.42;105308;1258;109688;-67
2023/01/12 07:50:54;;;;;;;18.20;9.80;;;;;;;3.90;96.97;98748.93;105258;1264;98788;-67
2023/01/12 07:53:21;;;;;;;22.70;11.00;;;;;;;3.94;96.96;98752.20;105350;1257;97940;-67
2023/01/12 07:55:48;;;;;;;21.80;11.80;;;;;;;4.00;96.90;98751.23;105297;1265;99229;-67
2023/01/12 07:58:15;;;;;;;39.30;19.00;;;;;;;4.06;96.95;98747.23;105278;1260;98334;-67
2023/01/12 08:00:43;;;;;;;52.60;22.60;;;;;;;4.14;97.00;98743.61;105290;1264;97901;-67
2023/01/12 08:03:12;;;;;;;183.80;78.70;;;;;;;4.23;96.66;98744.94;105265;1257;99191;-67
2023/01/12 08:05:39;;;;;;;25.80;13.10;;;;;;;4.37;96.82;98748.09;105339;1257;98309;-67
2023/01/12 08:08:07;;;;;;;63.80;25.10;;;;;;;4.54;96.24;98750.20;105158;1255;111893;-67
2023/01/12 08:10:35;;;;;;;21.20;10.50;;;;;;;4.69;95.88;98750.88;105265;1257;97906;-68
2023/01/12 08:13:02;;;;;;;73.80;31.60;;;;;;;4.86;95.04;98754.48;105336;1264;98826;-67
2023/01/12 08:15:36;;;;;;;38.40;18.00;;;;;;;5.07;94.70;98759.45;105304;1257;97882;-67
2023/01/12 08:18:26;;;;;;;24.50;11.50;;;;;;;5.23;93.62;98754.26;105344;1267;98798;-67
2023/01/12 08:20:59;;;;;;;24.10;13.40;;;;;;;5.33;92.78;98752.81;105357;1267;112258;-68
2023/01/12 08:23:34;;;;;;;76.00;35.40;;;;;;;5.45;92.92;98749.56;105045;1258;98547;-68
2023/01/12 08:26:05;;;;;;;72.80;29.90;;;;;;;5.63;92.91;98748.25;105124;1260;108405;-68
2023/01/12 08:28:42;;;;;;;215.70;67.40;;;;;;;5.82;92.38;98757.14;105321;1251;97908;-68
2023/01/12 08:31:13;;;;;;;340.80;134.90;;;;;;;5.99;91.14;98755.73;105253;1257;99083;-68
2023/01/12 08:33:42;;;;;;;180.40;75.70;;;;;;;6.10;90.29;98744.66;105111;1270;110131;-68
2023/01/12 08:36:13;;;;;;;217.10;74.50;;;;;;;6.26;90.29;98748.58;105083;1265;98164;-68
2023/01/12 08:38:41;;;;;;;363.80;135.60;;;;;;;6.48;90.17;98755.84;105290;1257;108581;-68
2023/01/12 08:46:54;;;;;;;329.40;110.80;;;;;;;6.64;87.57;98746.06;104771;1281;112165;-67
2023/01/12 08:49:25;;;;;;;128.10;47.60;;;;;;;6.58;86.96;98749.83;104639;1257;98163;-70
2023/01/12 08:51:52;;;;;;;134.20;48.70;;;;;;;6.49;87.39;98750.87;104883;1273;107385;-68
2023/01/12 08:54:20;;;;;;;1220.30;495.60;;;;;;;6.38;87.53;98752.95;104832;1263;99161;-68
2023/01/12 08:56:48;;;;;;;626.10;245.80;;;;;;;6.33;87.48;98753.27;104876;1281;98440;-68
2023/01/12 08:59:15;;;;;;;530.10;243.60;;;;;;;6.36;87.96;98753.20;104627;1274;111351;-68
2023/01/12 09:01:42;;;;;;;51.00;24.40;;;;;;;6.44;86.97;98741.05;104872;1270;98151;-68
2023/01/12 09:04:10;;;;;;;355.10;178.50;;;;;;;6.55;87.03;98748.25;104843;1274;98177;-68
2023/01/12 09:06:40;;;;;;;465.30;266.20;;;;;;;6.69;86.63;98748.36;104869;1280;98783;-68
2023/01/12 09:09:14;;;;;;;227.20;101.00;;;;;;;6.79;86.31;98753.56;104883;1270;98133;-68
2023/01/12 09:11:42;;;;;;;269.70;136.20;;;;;;;6.91;86.56;98753.02;104888;1263;112108;-68
2023/01/12 09:14:10;;;;;;;73.70;36.60;;;;;;;7.02;86.49;98756.50;104738;1261;98844;-68
2023/01/12 09:16:38;;;;;;;244.10;133.80;;;;;;;7.12;86.64;98748.29;104832;1273;107665;-67
2023/01/12 09:19:07;;;;;;;23.00;12.40;;;;;;;7.17;85.42;98745.09;104799;1263;98128;-67
2023/01/12 09:21:37;;;;;;;106.60;51.60;;;;;;;7.20;85.05;98738.72;104804;1271;98494;-67
2023/01/12 09:24:06;;;;;;;121.00;53.40;;;;;;;7.24;84.43;98738.35;105235;1274;112403;-67
2023/01/12 09:26:39;;;;;;;165.50;66.60;;;;;;;7.30;83.97;98735.52;105414;1255;99009;-67
2023/01/12 09:29:10;;;;;;;245.00;112.10;;;;;;;7.43;84.10;98741.69;105438;1267;107595;-65
2023/01/12 09:31:40;;;;;;;344.20;153.50;;;;;;;7.53;83.19;98736.38;105222;1267;97906;-65
2023/01/12 09:34:07;;;;;;;49.60;22.50;;;;;;;7.63;82.42;98728.20;104865;1260;98120;-65
2023/01/12 09:36:37;;;;;;;164.10;64.30;;;;;;;7.79;82.40;98726.95;105218;1266;112271;-65
2023/01/12 09:39:06;;;;;;;235.80;99.90;;;;;;;7.99;81.69;98720.02;105136;1266;99197;-65
2023/01/12 09:47:46;;;;;;;394.90;170.40;;;;;;;8.75;79.65;98726.08;105209;1257;99083;-67
2023/01/12 09:50:19;;;;;;;134.50;53.90;;;;;;;9.00;78.79;98725.09;105056;1269;111848;-67
2023/01/12 09:52:53;;;;;;;164.30;72.80;;;;;;;9.20;76.87;98717.30;105254;1266;99246;-67
2023/01/12 09:55:23;;;;;;;227.70;100.90;;;;;;;9.31;75.86;98707.67;105073;1269;107145;-67
2023/01/12 09:58:26;;;;;;;62.10;28.00;;;;;;;9.39;74.76;98705.86;105035;1261;99437;-67
2023/01/12 10:00:56;;;;;;;147.50;62.40;;;;;;;9.52;74.21;98708.79;104778;1263;98291;-67
2023/01/12 10:03:29;;;;;;;264.80;113.60;;;;;;;9.71;73.45;98707.99;104470;1270;110976;-67
2023/01/12 10:06:00;;;;;;;148.00;70.50;;;;;;;9.98;73.77;98704.64;104459;1266;97994;-67
2023/01/12 10:08:50;;;;;;;32.00;18.20;;;;;;;10.25;70.88;98705.73;104805;1264;108588;-71
2023/01/12 10:11:29;;;;;;;35.90;18.60;;;;;;;10.60;71.84;98701.33;104474;1266;97896;-68
2023/01/12 10:14:14;;;;;;;107.30;63.10;;;;;;;10.94;70.49;98698.94;104593;1274;99674;-68
2023/01/12 10:16:49;;;;;;;29.50;16.00;;;;;;;11.23;70.13;98699.79;104776;1273;111116;-67
2023/01/12 10:19:55;;;;;;;48.50;25.30;;;;;;;11.48;68.97;98697.52;104844;1261;99309;-67
2023/01/12 10:22:39;;;;;;;40.40;22.40;;;;;;;11.53;65.82;98692.52;104065;1282;108363;-67
2023/01/12 10:25:28;;;;;;;19.00;10.90;;;;;;;11.76;68.04;98694.59;104281;1279;98165;-68
2023/01/12 10:27:58;;;;;;;21.60;13.60;;;;;;;12.11;65.65;98690.52;104156;1278;98278;-67
2023/01/12 10:30:30;;;;;;;28.30;18.30;;;;;;;12.26;64.54;98680.69;104142;1273;110917;-68
2023/01/12 10:33:18;;;;;;;33.80;21.60;;;;;;;12.34;63.51;98681.81;104140;1279;99297;-68
2023/01/12 10:35:58;;;;;;;75.10;45.00;;;;;;;12.61;64.69;98687.59;104454;1260;109744;-67
2023/01/12 10:38:32;;;;;;;28.80;20.60;;;;;;;12.76;62.60;98686.03;104650;1279;97994;-68
2023/01/12 10:41:05;;;;;;;45.70;29.80;;;;;;;12.78;60.72;98692.02;104637;1266;98281;-67
2023/01/12 10:43:33;;;;;;;15.30;9.70;;;;;;;12.78;60.77;98689.65;104576;1265;111810;-67
2023/01/12 10:46:17;;;;;;;38.40;23.50;;;;;;;12.68;59.78;98684.50;104639;1273;98905;-67
2023/01/12 10:48:47;;;;;;;9.60;6.40;;;;;;;12.81;60.56;98683.02;104607;1271;108531;-67
2023/01/12 10:51:29;;;;;;;17.50;12.40;;;;;;;12.97;59.28;98676.29;104621;1273;99319;-67
2023/01/12 10:54:01;;;;;;;13.40;8.80;;;;;;;13.04;58.87;98673.05;104602;1264;98074;-67
2023/01/12 10:56:34;;;;;;;6.70;4.30;;;;;;;13.05;58.26;98669.75;104619;1265;112267;-67
2023/01/12 10:59:14;;;;;;;16.10;11.00;;;;;;;13.10;57.96;98674.74;104649;1275;98308;-68
2023/01/12 11:01:52;;;;;;;20.60;13.90;;;;;;;13.07;57.41;98681.73;105211;1275;108490;-68
2023/01/12 11:04:27;;;;;;;9.10;5.60;;;;;;;13.18;57.75;98682.87;105151;1258;97904;-66
2023/01/12 11:07:07;;;;;;;9.80;5.10;;;;;;;13.16;56.41;98680.68;104950;1264;97941;-66
2023/01/12 11:09:34;;;;;;;16.90;10.60;;;;;;;13.10;55.67;98672.31;105198;1258;112174;-66
2023/01/12 11:12:05;;;;;;;7.70;4.50;;;;;;;13.09;56.19;98671.74;105051;1264;97836;-66
2023/01/12 11:14:36;;;;;;;11.80;7.30;;;;;;;13.09;56.41;98669.38;105194;1257;108311;-66
2023/01/12 11:17:24;;;;;;;6.20;3.40;;;;;;;13.14;55.71;98666.05;104997;1261;97984;-67
2023/01/12 11:19:54;;;;;;;7.30;4.10;;;;;;;13.20;55.65;98669.17;105383;1257;97829;-67
2023/01/12 11:22:36;;;;;;;5.30;3.70;;;;;;;13.23;55.81;98668.54;105181;1256;112789;-66
2023/01/12 11:25:22;;;;;;;9.60;5.60;;;;;;;13.36;55.44;98668.31;105219;1255;97889;-67
2023/01/12 11:28:13;;;;;;;4.00;2.90;;;;;;;13.49;54.85;98661.36;105052;1266;108659;-66
2023/01/12 11:30:50;;;;;;;9.10;5.00;;;;;;;13.54;54.53;98661.50;105205;1254;97946;-67
2023/01/12 11:33:52;;;;;;;5.00;2.20;;;;;;;13.63;54.65;98653.27;104946;1261;97959;-69
2023/01/12 11:36:25;;;;;;;6.10;4.00;;;;;;;13.68;54.28;98647.09;105124;1268;111888;-67
2023/01/12 11:38:59;;;;;;;13.20;9.30;;;;;;;13.88;54.07;98642.85;105283;1251;99491;-67
2023/01/12 11:41:34;;;;;;;9.30;5.50;;;;;;;14.07;53.54;98643.00;105294;1254;109066;-67
2023/01/12 11:44:31;;;;;;;6.50;3.40;;;;;;;14.22;53.40;98637.48;105308;1257;97998;-67
2023/01/12 11:47:14;;;;;;;5.40;2.60;;;;;;;14.46;53.21;98631.70;105313;1254;98292;-65
2023/01/12 11:49:51;;;;;;;4.90;3.00;;;;;;;14.55;51.33;98626.96;105008;1257;110858;-65
2023/01/12 11:52:18;;;;;;;5.50;3.10;;;;;;;14.52;50.16;98626.61;104699;1251;97948;-65
2023/01/12 11:54:48;;;;;;;7.30;3.40;;;;;;;14.53;50.82;98630.02;105071;1251;97956;-65
2023/01/12 11:57:44;;;;;;;7.00;3.00;;;;;;;14.76;51.61;98627.27;105114;1254;97901;-66
2023/01/12 12:00:58;;;;;;;7.20;3.70;;;;;;;15.07;50.07;98624.98;105243;1251;97896;-65
2023/01/12 12:03:45;;;;;;;8.00;4.10;;;;;;;15.16;49.63;98623.69;104948;1270;110836;-67
2023/01/12 12:06:28;;;;;;;8.90;3.80;;;;;;;15.24;50.62;98616.60;105126;1261;100136;-66
2023/01/12 12:09:32;;;;;;;8.50;3.60;;;;;;;15.49;49.41;98619.88;105025;1268;108222;-66
2023/01/12 12:12:03;;;;;;;9.10;4.50;;;;;;;15.45;48.17;98613.77;105344;1264;99196;-66
2023/01/12 12:15:21;;;;;;;9.70;3.90;;;;;;;15.46;47.83;98609.99;104906;1267;98093;-67
2023/01/12 12:17:58;;;;;;;6.30;2.50;;;;;;;15.36;47.62;98608.05;104510;1265;110915;-67